FFT weather

Capital City Airport
Frankfort, Kentucky, United States

Public forecast

Using degrees Fahrenheit for public forecast. Weather courtesy of forecast.io.

Current aviation weather report (METAR) for Capital City Airport

Retrieved 2019/12/13 06:53 UTC (39 minutes ago):

KFFT 130653Z AUTO 17008KT 10SM OVC032 07/01 A3015 RMK AO2 SLP212 T00670011

Closest aviation forecast (TAF) to Capital City Airport

Closest forecast is Blue Grass Airport, 16.6 nm (30.8 km) ESE. Retrieved 2019/12/13 06:27 UTC (1 hour ago):

TAF KLEX 130524Z 1306/1406 14006KT P6SM BKN030 OVC040 FM131100 14006KT P6SM VCSH OVC015 FM131900 10006KT 2SM -RA BR OVC003 FM140300 12004KT 1/2SM -RA FG OVC003